Time;durP1;ratioP1;P1;durP2;ratioP2;P2;SDS_P1;SDS_P2;PMS_P1;PMS_P2;Temp;Humidity;BMP_temperature;BMP_pressure;BME280_temperature;BME280_humidity;BME280_pressure;Samples;Min_cycle;Max_cycle;Signal;HPM_P1;HPM_P2
2023/07/28 00:02:15;;;;;;;;;;;;;;;16.52;55.73;100645.03;4996046;28;1005;-54
2023/07/28 00:04:41;;;;;;;;;;;;;;;16.51;55.49;100648.88;4996144;28;1126;-55
2023/07/28 00:07:06;;;;;;;;;;;;;;;16.40;55.15;100642.59;4996272;28;1234;-55
2023/07/28 00:09:32;;;;;;;;;;;;;;;16.39;54.91;100643.69;4995920;28;1229;-54
2023/07/28 00:11:58;;;;;;;;;;;;;;;16.28;54.75;100640.09;4997593;28;1047;-55
2023/07/28 00:14:25;;;;;;;;;;;;;;;16.21;54.86;100645.03;4999659;28;2509;-55
2023/07/28 00:16:53;;;;;;;;;;;;;;;16.16;54.58;100647.78;5000028;28;1075;-54
2023/07/28 00:19:20;;;;;;;;;;;;;;;16.13;54.73;100642.84;5000144;28;1159;-54
2023/07/28 00:21:46;;;;;;;;;;;;;;;16.07;54.71;100640.13;4999911;28;1052;-53
2023/07/28 00:24:12;;;;;;;;;;;;;;;16.08;54.62;100641.75;4999687;28;1056;-53
2023/07/28 00:26:38;;;;;;;;;;;;;;;16.02;54.68;100636.53;4999662;28;1428;-55
2023/07/28 00:29:06;;;;;;;;;;;;;;;16.79;55.94;100636.47;5000149;28;1112;-55
2023/07/28 00:31:32;;;;;;;;;;;;;;;17.47;56.25;100629.63;4999505;28;1076;-55
2023/07/28 00:33:57;;;;;;;;;;;;;;;16.83;56.77;100628.50;4998374;28;1985;-53
2023/07/28 00:36:23;;;;;;;;;;;;;;;16.61;56.56;100629.66;4999581;28;1097;-56
2023/07/28 00:38:48;;;;;;;;;;;;;;;16.51;56.01;100635.13;4998152;28;1083;-55
2023/07/28 00:41:15;;;;;;;;;;;;;;;16.45;55.66;100636.25;4998299;28;1238;-54
2023/07/28 00:43:41;;;;;;;;;;;;;;;16.39;55.33;100628.03;4999516;28;1156;-55
2023/07/28 00:46:06;;;;;;;;;;;;;;;16.28;55.16;100626.38;4999228;28;2625;-55
2023/07/28 00:48:32;;;;;;;;;;;;;;;16.22;55.17;100642.03;4982069;28;1199;-56
2023/07/28 00:50:57;;;;;;;;;;;;;;;16.14;54.92;100644.50;4997996;28;1155;-55
2023/07/28 00:53:23;;;;;;;;;;;;;;;16.11;54.98;100647.78;4999609;28;1910;-55
2023/07/28 00:55:49;;;;;;;;;;;;;;;16.12;54.76;100647.53;4997519;28;1128;-55
2023/07/28 00:58:14;;;;;;;;;;;;;;;16.11;54.53;100650.53;4997889;28;1218;-55
2023/07/28 01:00:40;;;;;;;;;;;;;;;16.04;54.71;100648.88;4997417;28;1218;-55
2023/07/28 01:03:06;;;;;;;;;;;;;;;15.97;54.77;100647.50;4999232;28;1061;-56
2023/07/28 01:05:33;;;;;;;;;;;;;;;15.96;54.77;100651.34;4999012;28;1057;-55
2023/07/28 01:08:01;;;;;;;;;;;;;;;15.90;54.68;100653.25;4997890;28;1280;-55
2023/07/28 01:10:31;;;;;;;;;;;;;;;16.71;56.09;100648.84;4997660;28;1297;-54
2023/07/28 01:12:56;;;;;;;;;;;;;;;17.35;56.27;100653.88;4997112;28;1959;-55
2023/07/28 01:15:22;;;;;;;;;;;;;;;16.76;56.77;100659.81;4997213;28;2340;-55
2023/07/28 01:17:47;;;;;;;;;;;;;;;16.52;56.29;100659.59;4997327;28;1410;-55
2023/07/28 01:20:13;;;;;;;;;;;;;;;16.39;55.84;100671.13;4981203;28;1208;-53
2023/07/28 01:22:57;;;;;;;;;;;;;;;16.35;55.54;100670.81;4997947;28;1051;-55
2023/07/28 01:25:28;;;;;;;;;;;;;;;16.31;55.00;100677.16;4998834;28;1060;-56
2023/07/28 01:27:54;;;;;;;;;;;;;;;16.19;55.18;100663.72;4998709;28;1001;-57
2023/07/28 01:30:21;;;;;;;;;;;;;;;16.14;54.97;100677.41;4997169;28;1163;-54
2023/07/28 01:32:47;;;;;;;;;;;;;;;16.10;54.93;100679.06;4997157;28;1175;-55
2023/07/28 01:35:12;;;;;;;;;;;;;;;16.07;54.84;100678.53;4996795;28;1906;-55
2023/07/28 01:37:38;;;;;;;;;;;;;;;16.04;54.61;100684.53;4998431;28;1092;-55
2023/07/28 01:40:03;;;;;;;;;;;;;;;15.98;54.57;100674.66;4997011;28;1127;-55
2023/07/28 01:42:29;;;;;;;;;;;;;;;16.63;56.27;100682.34;4997158;28;1307;-55
2023/07/28 01:44:54;;;;;;;;;;;;;;;17.21;56.23;100676.50;4996915;28;1850;-56
2023/07/28 01:47:20;;;;;;;;;;;;;;;16.65;56.78;100685.66;4998269;28;1024;-59
2023/07/28 01:49:45;;;;;;;;;;;;;;;16.46;56.35;100682.63;4998085;28;1167;-56
2023/07/28 01:52:11;;;;;;;;;;;;;;;16.36;55.84;100685.41;4997004;28;1156;-56
2023/07/28 01:54:36;;;;;;;;;;;;;;;16.24;55.60;100685.66;4998428;28;1906;-55
2023/07/28 01:57:02;;;;;;;;;;;;;;;16.22;55.17;100682.38;4998207;28;1048;-56
2023/07/28 01:59:27;;;;;;;;;;;;;;;16.16;55.09;100691.66;4997084;28;1171;-54
2023/07/28 02:01:53;;;;;;;;;;;;;;;16.12;54.73;100685.09;4997657;28;814;-55
2023/07/28 02:04:18;;;;;;;;;;;;;;;16.04;54.93;100690.00;4998130;28;1218;-55
2023/07/28 02:06:44;;;;;;;;;;;;;;;16.06;54.44;100689.75;4998413;28;1093;-55
2023/07/28 02:09:09;;;;;;;;;;;;;;;16.00;54.47;100701.81;4996633;28;1210;-54
2023/07/28 02:11:35;;;;;;;;;;;;;;;15.90;54.60;100692.44;4997629;28;1025;-53
2023/07/28 02:14:00;;;;;;;;;;;;;;;16.40;55.74;100701.03;4996175;28;1914;-55
2023/07/28 02:16:27;;;;;;;;;;;;;;;17.49;55.88;100698.91;4997868;28;1067;-55
2023/07/28 02:18:53;;;;;;;;;;;;;;;16.84;56.46;100710.59;4997781;28;1179;-53
2023/07/28 02:21:19;;;;;;;;;;;;;;;16.56;56.39;100710.09;4997909;28;1201;-54
2023/07/28 02:23:44;;;;;;;;;;;;;;;16.46;56.00;100718.31;4997561;28;1016;-54
2023/07/28 02:26:10;;;;;;;;;;;;;;;16.37;55.45;100718.03;4997344;28;892;-53
2023/07/28 02:28:35;;;;;;;;;;;;;;;16.30;55.37;100712.00;4997626;28;1068;-55
2023/07/28 02:31:01;;;;;;;;;;;;;;;16.21;55.16;100719.13;4997252;28;1036;-55
2023/07/28 02:33:29;;;;;;;;;;;;;;;16.16;54.96;100719.09;4996372;28;1910;-55
2023/07/28 02:35:55;;;;;;;;;;;;;;;16.15;54.80;100718.28;4996921;28;1051;-55
2023/07/28 02:38:21;;;;;;;;;;;;;;;16.10;54.92;100728.44;4995413;28;1999;-55
2023/07/28 02:40:46;;;;;;;;;;;;;;;15.97;54.96;100716.06;4997387;28;1012;-56
2023/07/28 02:43:12;;;;;;;;;;;;;;;16.01;54.48;100731.69;4997019;28;1032;-55
2023/07/28 02:45:37;;;;;;;;;;;;;;;15.95;55.15;100721.84;4997424;28;2557;-57
2023/07/28 02:48:03;;;;;;;;;;;;;;;17.15;56.64;100716.06;4995898;28;1199;-56
2023/07/28 02:50:28;;;;;;;;;;;;;;;17.18;56.39;100717.44;4995730;28;1115;-55
2023/07/28 02:52:54;;;;;;;;;;;;;;;16.72;56.82;100716.41;4997115;28;1057;-54
2023/07/28 02:55:19;;;;;;;;;;;;;;;16.48;56.33;100718.88;4997002;28;1902;-54
2023/07/28 02:57:45;;;;;;;;;;;;;;;16.36;56.07;100713.66;5012157;28;1174;-53
2023/07/28 03:00:11;;;;;;;;;;;;;;;16.32;55.68;100722.72;4995141;28;1119;-55
2023/07/28 03:02:36;;;;;;;;;;;;;;;16.30;55.25;100722.97;4995411;28;849;-54
2023/07/28 03:05:02;;;;;;;;;;;;;;;16.19;55.42;100732.31;4995680;28;1207;-51
2023/07/28 03:08:03;;;;;;;;;;;;;;;16.12;55.01;100737.19;4974919;28;1101;-52
2023/07/28 03:10:28;;;;;;;;;;;;;;;16.14;54.86;100737.78;4992229;28;1226;-51
2023/07/28 03:12:54;;;;;;;;;;;;;;;16.09;54.72;100738.59;4996753;28;1013;-53
2023/07/28 03:15:21;;;;;;;;;;;;;;;16.00;54.65;100740.22;4994819;28;2304;-55
2023/07/28 03:17:47;;;;;;;;;;;;;;;15.96;54.67;100739.91;4996554;28;1063;-57
2023/07/28 03:20:13;;;;;;;;;;;;;;;15.95;54.52;100748.41;4996589;28;1000;-57
2023/07/28 03:22:39;;;;;;;;;;;;;;;15.89;54.72;100733.84;4995451;28;1341;-57
2023/07/28 03:25:04;;;;;;;;;;;;;;;15.89;54.33;100753.06;4996431;28;1040;-58
2023/07/28 03:27:30;;;;;;;;;;;;;;;15.84;54.69;100750.31;4996904;28;1051;-57
2023/07/28 03:29:56;;;;;;;;;;;;;;;16.75;56.18;100757.03;4996492;28;1147;-57
2023/07/28 03:32:22;;;;;;;;;;;;;;;17.48;56.16;100755.00;4995035;28;1113;-58
2023/07/28 03:34:48;;;;;;;;;;;;;;;16.76;56.89;100769.66;5011611;28;1902;-58
2023/07/28 03:37:17;;;;;;;;;;;;;;;16.56;56.61;100780.63;4994560;28;1394;-57
2023/07/28 03:39:43;;;;;;;;;;;;;;;16.44;56.01;100778.16;4996276;28;1107;-57
2023/07/28 03:42:08;;;;;;;;;;;;;;;16.37;55.67;100785.84;4994879;28;2140;-57
2023/07/28 03:44:34;;;;;;;;;;;;;;;16.31;55.41;100781.41;4978516;28;1879;-58
2023/07/28 03:46:59;;;;;;;;;;;;;;;16.26;55.13;100776.75;4996411;28;1087;-57
2023/07/28 03:49:25;;;;;;;;;;;;;;;16.18;55.27;100782.78;4993958;28;1103;-57
2023/07/28 03:51:51;;;;;;;;;;;;;;;16.18;55.14;100788.25;5011304;28;1269;-58
2023/07/28 03:54:17;;;;;;;;;;;;;;;16.35;55.98;100797.06;4990853;28;1914;-59
2023/07/28 03:56:42;;;;;;;;;;;;;;;16.33;56.63;100788.28;4991043;28;1191;-60
2023/07/28 03:59:08;;;;;;;;;;;;;;;16.30;57.33;100794.31;4996320;28;1370;-58
2023/07/28 04:01:33;;;;;;;;;;;;;;;16.34;57.78;100797.34;4996141;28;1017;-58
2023/07/28 04:04:03;;;;;;;;;;;;;;;16.34;57.64;100795.44;4991961;28;1211;-61
2023/07/28 04:06:45;;;;;;;;;;;;;;;16.33;57.95;100801.19;4992911;28;1188;-60
2023/07/28 04:09:11;;;;;;;;;;;;;;;16.28;58.21;100807.47;4992188;28;1565;-48
2023/07/28 04:11:37;;;;;;;;;;;;;;;16.34;58.03;100811.06;4992191;28;1044;-50
2023/07/28 04:14:03;;;;;;;;;;;;;;;16.40;57.72;100820.97;4990318;28;2558;-55
2023/07/28 04:16:28;;;;;;;;;;;;;;;16.41;57.86;100828.09;4991248;28;1416;-53
2023/07/28 04:18:54;;;;;;;;;;;;;;;16.41;57.94;100828.09;4995260;28;1372;-51
2023/07/28 04:21:20;;;;;;;;;;;;;;;16.39;57.82;100836.59;4991977;28;1095;-48
2023/07/28 04:23:45;;;;;;;;;;;;;;;16.38;58.14;100840.44;4998066;28;1154;-49
2023/07/28 04:26:11;;;;;;;;;;;;;;;16.35;58.07;100849.19;4998870;28;1395;-51
2023/07/28 04:28:38;;;;;;;;;;;;;;;16.39;58.16;100842.06;5010064;28;1475;-50
2023/07/28 04:31:03;;;;;;;;;;;;;;;16.43;58.06;100840.44;4994554;28;1278;-52
2023/07/28 04:33:48;;;;;;;;;;;;;;;16.39;58.17;100844.00;4989612;28;1906;-45
2023/07/28 04:36:13;;;;;;;;;;;;;;;16.43;58.17;100853.34;4995527;28;822;-52
2023/07/28 04:38:39;;;;;;;;;;;;;;;16.49;58.02;100851.44;4995891;28;1012;-51
2023/07/28 04:41:05;;;;;;;;;;;;;;;16.46;58.15;100849.25;4994734;28;1155;-46
2023/07/28 04:43:47;;;;;;;;;;;;;;;16.45;57.99;100844.84;4994318;28;1270;-51
2023/07/28 04:46:12;;;;;;;;;;;;;;;16.47;57.89;100835.25;4995781;28;2792;-54
2023/07/28 04:48:39;;;;;;;;;;;;;;;16.56;58.90;100841.03;5010591;28;1177;-51
2023/07/28 04:51:24;;;;;;;;;;;;;;;16.84;59.05;100847.09;4995947;28;1343;-50
2023/07/28 04:54:08;;;;;;;;;;;;;;;16.50;57.17;100833.88;4995495;28;1906;-53
2023/07/28 04:56:34;;;;;;;;;;;;;;;16.51;55.64;100838.25;4996141;28;1048;-46
2023/07/28 04:58:59;;;;;;;;;;;;;;;16.36;54.72;100830.84;4997821;28;1195;-53
2023/07/28 05:01:25;;;;;;;;;;;;;;;16.33;52.95;100825.91;4997927;28;1367;-52
2023/07/28 05:03:50;;;;;;;;;;;;;;;16.29;52.04;100831.09;4995519;28;1402;-51
2023/07/28 05:06:23;;;;;;;;;;;;;;;16.30;50.77;100846.47;4991091;28;1421;-54
2023/07/28 05:08:49;;;;;;;;;;;;;;;16.21;50.21;100834.34;4997262;28;966;-48
2023/07/28 05:11:20;;;;;;;;;;;;;;;16.07;50.05;100840.34;4997516;28;1125;-49
2023/07/28 05:13:46;;;;;;;;;;;;;;;16.10;49.51;100835.41;4997781;28;1969;-45
2023/07/28 05:16:11;;;;;;;;;;;;;;;16.12;49.14;100838.69;4995255;28;2608;-52
2023/07/28 05:19:12;;;;;;;;;;;;;;;15.97;48.93;100845.78;4994073;28;1311;-50
2023/07/28 05:21:56;;;;;;;;;;;;;;;16.07;48.48;100842.25;4991901;28;1159;-49
2023/07/28 05:24:34;;;;;;;;;;;;;;;16.02;48.20;100836.75;5007759;28;1404;-50
2023/07/28 05:26:59;;;;;;;;;;;;;;;16.00;48.04;100828.78;4997022;28;1050;-50
2023/07/28 05:29:25;;;;;;;;;;;;;;;15.98;48.01;100825.50;4997260;28;1493;-49
2023/07/28 05:31:53;;;;;;;;;;;;;;;15.91;47.95;100831.22;4997081;28;1624;-52
2023/07/28 05:34:34;;;;;;;;;;;;;;;15.95;47.72;100834.28;4997000;28;1922;-51
2023/07/28 05:37:00;;;;;;;;;;;;;;;15.91;47.96;100833.16;5013075;28;1243;-50
2023/07/28 05:39:29;;;;;;;;;;;;;;;15.95;47.52;100842.50;4997583;28;1158;-50
2023/07/28 05:41:55;;;;;;;;;;;;;;;15.89;47.45;100829.84;4998421;28;1131;-51
2023/07/28 05:44:20;;;;;;;;;;;;;;;15.98;47.13;100824.69;4996366;28;1134;-51
2023/07/28 05:46:48;;;;;;;;;;;;;;;16.49;48.64;100832.22;4998322;28;1159;-51
2023/07/28 05:49:14;;;;;;;;;;;;;;;16.62;51.25;100836.38;4997039;28;1198;-54
2023/07/28 05:51:40;;;;;;;;;;;;;;;16.36;50.36;100831.66;4996853;28;1280;-50
2023/07/28 05:54:06;;;;;;;;;;;;;;;16.20;49.77;100827.22;4996059;28;1918;-51
2023/07/28 05:56:31;;;;;;;;;;;;;;;16.28;48.46;100823.94;4997342;28;1152;-50
2023/07/28 05:58:57;;;;;;;;;;;;;;;16.16;48.16;100820.59;4996632;28;1264;-54
2023/07/28 06:01:25;;;;;;;;;;;;;;;16.85;49.66;100815.81;4995835;28;1514;-49
2023/07/28 06:04:08;;;;;;;;;;;;;;;16.52;49.51;100826.19;4985419;28;970;-52
2023/07/28 06:06:40;;;;;;;;;;;;;;;16.35;49.01;100824.50;4996621;28;1504;-53
2023/07/28 06:09:06;;;;;;;;;;;;;;;16.36;48.42;100822.59;4996668;28;1203;-48
2023/07/28 06:11:33;;;;;;;;;;;;;;;16.14;48.25;100814.59;4996778;28;1119;-48
2023/07/28 06:14:00;;;;;;;;;;;;;;;16.20;47.80;100816.22;4997886;28;1910;-52
2023/07/28 06:16:26;;;;;;;;;;;;;;;16.20;47.84;100818.97;4992472;28;1374;-51
2023/07/28 06:18:52;;;;;;;;;;;;;;;16.20;47.43;100808.84;4986733;28;1230;-51
2023/07/28 06:21:20;;;;;;;;;;;;;;;16.23;46.92;100815.72;5009223;28;1170;-50
2023/07/28 06:23:46;;;;;;;;;;;;;;;16.77;49.39;100819.91;4997568;28;1144;-50
2023/07/28 06:26:11;;;;;;;;;;;;;;;16.49;48.92;100824.81;4996311;28;1365;-53
2023/07/28 06:28:39;;;;;;;;;;;;;;;16.33;48.43;100815.72;4996079;28;1191;-51
2023/07/28 06:31:05;;;;;;;;;;;;;;;16.25;48.02;100824.50;4996630;28;1225;-50
2023/07/28 06:33:31;;;;;;;;;;;;;;;16.35;47.69;100821.75;4995559;28;1972;-51
2023/07/28 06:35:57;;;;;;;;;;;;;;;16.23;47.57;100812.97;4995279;28;1325;-51
2023/07/28 06:38:23;;;;;;;;;;;;;;;16.16;47.25;100820.59;4997739;28;1111;-49
2023/07/28 06:40:48;;;;;;;;;;;;;;;16.31;47.00;100823.41;4996122;28;1123;-51
2023/07/28 06:43:14;;;;;;;;;;;;;;;16.89;48.33;100831.47;4997411;28;1211;-47
2023/07/28 06:45:39;;;;;;;;;;;;;;;16.63;48.83;100832.53;4995686;28;2274;-52
2023/07/28 06:48:05;;;;;;;;;;;;;;;16.50;48.45;100831.13;4994624;28;1312;-52
2023/07/28 06:50:32;;;;;;;;;;;;;;;16.43;47.90;100843.19;4994190;28;1536;-50
2023/07/28 06:52:57;;;;;;;;;;;;;;;16.36;47.71;100842.63;4999356;28;1292;-50
2023/07/28 06:55:24;;;;;;;;;;;;;;;16.36;47.32;100841.81;4995576;28;1906;-55
2023/07/28 06:57:50;;;;;;;;;;;;;;;16.35;47.03;100834.66;4995921;28;1250;-57
2023/07/28 07:00:17;;;;;;;;;;;;;;;17.15;48.72;100833.41;4996351;28;1024;-54
2023/07/28 07:02:43;;;;;;;;;;;;;;;16.70;49.30;100853.13;4986083;28;1360;-46
2023/07/28 07:05:09;;;;;;;;;;;;;;;16.61;48.94;100852.03;5004214;28;1419;-53
2023/07/28 07:07:34;;;;;;;;;;;;;;;16.65;50.33;100852.28;4995686;28;1367;-55
2023/07/28 07:10:00;;;;;;;;;;;;;;;16.66;49.27;100853.94;4995446;28;1531;-48
2023/07/28 07:12:25;;;;;;;;;;;;;;;16.57;48.45;100857.22;4996388;28;1202;-54
2023/07/28 07:14:51;;;;;;;;;;;;;;;16.50;47.73;100856.66;4996676;28;2510;-49
2023/07/28 07:17:17;;;;;;;;;;;;;;;16.48;47.75;100860.75;4996677;28;1103;-55
2023/07/28 07:19:42;;;;;;;;;;;;;;;16.55;47.36;100861.31;4996323;28;1277;-51
2023/07/28 07:22:08;;;;;;;;;;;;;;;16.37;47.65;100858.00;4996379;28;1103;-54
2023/07/28 07:24:33;;;;;;;;;;;;;;;16.45;47.16;100855.81;4996096;28;1013;-52
2023/07/28 07:26:59;;;;;;;;;;;;;;;16.45;47.05;100866.81;4997035;28;1144;-54
2023/07/28 07:29:24;;;;;;;;;;;;;;;16.36;47.10;100861.03;4996217;28;1121;-51
2023/07/28 07:31:54;;;;;;;;;;;;;;;16.24;47.30;100855.75;4996233;28;1422;-50
2023/07/28 07:34:20;;;;;;;;;;;;;;;17.13;48.49;100860.34;4983904;28;1916;-50
2023/07/28 07:36:46;;;;;;;;;;;;;;;16.70;49.10;100861.34;4996247;28;915;-52
2023/07/28 07:39:11;;;;;;;;;;;;;;;16.46;48.94;100854.75;4996434;28;1032;-54
2023/07/28 07:41:37;;;;;;;;;;;;;;;16.53;47.94;100860.78;4996318;28;1032;-50
2023/07/28 07:44:02;;;;;;;;;;;;;;;16.48;47.70;100858.03;4994089;28;2236;-53
2023/07/28 07:46:28;;;;;;;;;;;;;;;16.41;47.56;100861.00;4996322;28;1404;-48
2023/07/28 07:48:53;;;;;;;;;;;;;;;16.40;47.38;100865.69;4995720;28;1028;-50
2023/07/28 07:51:19;;;;;;;;;;;;;;;16.41;47.25;100859.13;4996435;28;1091;-47
2023/07/28 07:53:45;;;;;;;;;;;;;;;16.42;46.72;100863.53;4996676;28;1977;-52
2023/07/28 07:56:10;;;;;;;;;;;;;;;16.38;46.64;100854.19;4996175;28;1041;-53
2023/07/28 07:58:36;;;;;;;;;;;;;;;16.35;46.78;100851.94;4995634;28;1100;-52
2023/07/28 08:01:01;;;;;;;;;;;;;;;16.40;46.63;100851.97;4996106;28;1391;-49
2023/07/28 08:03:27;;;;;;;;;;;;;;;16.38;46.42;100856.91;4995136;28;1175;-48
2023/07/28 08:05:52;;;;;;;;;;;;;;;16.30;46.57;100854.69;4994900;28;1097;-47
2023/07/28 08:08:19;;;;;;;;;;;;;;;16.25;46.63;100841.75;4991579;28;1222;-47
2023/07/28 08:10:47;;;;;;;;;;;;;;;16.29;46.41;100850.28;4987494;28;1541;-49
2023/07/28 08:13:13;;;;;;;;;;;;;;;16.29;46.32;100853.03;5005627;28;1906;-51
2023/07/28 08:15:39;;;;;;;;;;;;;;;16.34;46.46;100849.47;4996126;28;2469;-48
2023/07/28 08:18:04;;;;;;;;;;;;;;;16.28;46.52;100843.16;4996328;28;1214;-53
2023/07/28 08:20:30;;;;;;;;;;;;;;;16.32;46.50;100857.16;4996121;28;1095;-50
2023/07/28 08:22:55;;;;;;;;;;;;;;;16.25;46.42;100847.25;4995052;28;1156;-48
2023/07/28 08:25:22;;;;;;;;;;;;;;;16.32;45.94;100854.41;4995856;28;855;-52
2023/07/28 08:27:48;;;;;;;;;;;;;;;16.27;46.28;100857.13;4995942;28;1028;-47
2023/07/28 08:30:15;;;;;;;;;;;;;;;16.20;46.38;100844.50;4995958;28;1051;-50
2023/07/28 08:32:41;;;;;;;;;;;;;;;16.21;46.57;100845.31;4996029;28;1104;-53
2023/07/28 08:35:08;;;;;;;;;;;;;;;16.18;46.65;100846.69;4993659;28;1971;-47
2023/07/28 08:37:33;;;;;;;;;;;;;;;16.18;46.59;100846.69;4999594;28;1108;-47
2023/07/28 08:39:58;;;;;;;;;;;;;;;16.21;46.70;100846.13;4999168;28;1152;-50
2023/07/28 08:42:24;;;;;;;;;;;;;;;17.27;47.80;100851.25;4999647;28;1285;-49
2023/07/28 08:44:52;;;;;;;;;;;;;;;16.71;48.83;100848.47;4999067;28;2415;-50
2023/07/28 08:47:17;;;;;;;;;;;;;;;16.67;47.91;100848.19;4999500;28;1165;-49
2023/07/28 08:49:43;;;;;;;;;;;;;;;16.51;47.80;100843.75;4999395;28;1270;-49
2023/07/28 08:52:08;;;;;;;;;;;;;;;16.51;47.36;100855.56;4999454;28;1100;-52
2023/07/28 08:54:34;;;;;;;;;;;;;;;16.45;47.25;100839.34;4999311;28;1983;-51
2023/07/28 08:56:59;;;;;;;;;;;;;;;17.01;48.12;100842.22;4999234;28;1512;-48
2023/07/28 08:59:26;;;;;;;;;;;;;;;16.77;48.75;100842.72;4999564;28;1372;-54
2023/07/28 09:01:52;;;;;;;;;;;;;;;16.65;48.34;100838.56;4998965;28;1140;-53
2023/07/28 09:04:18;;;;;;;;;;;;;;;16.56;48.03;100830.88;4991293;28;1325;-49
2023/07/28 09:06:47;;;;;;;;;;;;;;;16.60;47.74;100836.63;4999357;28;1305;-51
2023/07/28 09:09:13;;;;;;;;;;;;;;;16.47;47.80;100837.19;4998695;28;1159;-53
2023/07/28 09:11:49;;;;;;;;;;;;;;;16.61;48.51;100830.06;4995673;28;1336;-48
2023/07/28 09:14:16;;;;;;;;;;;;;;;16.64;48.15;100835.00;4998638;28;2322;-44
2023/07/28 09:16:44;;;;;;;;;;;;;;;16.65;47.75;100836.66;4998542;28;1337;-53
2023/07/28 09:19:10;;;;;;;;;;;;;;;16.81;47.66;100836.66;4998627;28;1349;-53
2023/07/28 09:21:36;;;;;;;;;;;;;;;17.17;49.03;100831.22;4998689;28;1027;-50
2023/07/28 09:24:08;;;;;;;;;;;;;;;16.83;49.84;100828.97;4996644;28;1208;-53
2023/07/28 09:26:38;;;;;;;;;;;;;;;16.76;49.34;100832.00;4997232;28;928;-52
2023/07/28 09:29:19;;;;;;;;;;;;;;;16.82;49.28;100832.84;4998033;28;1127;-53
2023/07/28 09:31:45;;;;;;;;;;;;;;;16.76;49.17;100830.06;4998664;28;1289;-49
2023/07/28 09:34:11;;;;;;;;;;;;;;;16.81;48.96;100832.00;4998056;28;1971;-52
2023/07/28 09:36:38;;;;;;;;;;;;;;;16.70;48.81;100820.16;4998253;28;1116;-51
2023/07/28 09:39:04;;;;;;;;;;;;;;;16.82;48.21;100827.34;4996711;28;1318;-52
2023/07/28 09:41:30;;;;;;;;;;;;;;;16.69;48.14;100817.69;4995450;28;1040;-53
2023/07/28 09:43:56;;;;;;;;;;;;;;;16.71;48.66;100810.84;4992249;28;2211;-54
2023/07/28 09:46:22;;;;;;;;;;;;;;;16.72;49.38;100818.00;4998207;28;1039;-53
2023/07/28 09:48:47;;;;;;;;;;;;;;;16.88;49.24;100816.09;5013335;28;1024;-54
2023/07/28 09:51:14;;;;;;;;;;;;;;;16.86;49.31;100818.28;4997223;28;1060;-52
2023/07/28 09:53:40;;;;;;;;;;;;;;;17.05;48.77;100826.78;5012124;28;1972;-54
2023/07/28 09:56:07;;;;;;;;;;;;;;;16.96;48.49;100816.63;4997932;28;1135;-54
2023/07/28 09:58:33;;;;;;;;;;;;;;;17.04;47.93;100822.41;4997189;28;1100;-51
2023/07/28 10:00:59;;;;;;;;;;;;;;;17.10;47.44;100815.00;4996214;28;1144;-54
2023/07/28 10:03:24;;;;;;;;;;;;;;;17.08;47.68;100815.28;4997723;28;1092;-53
2023/07/28 10:05:50;;;;;;;;;;;;;;;17.05;47.50;100813.06;4998032;28;1083;-53
2023/07/28 10:08:15;;;;;;;;;;;;;;;17.00;47.55;100807.59;4998000;28;1232;-55
2023/07/28 10:10:41;;;;;;;;;;;;;;;16.92;47.52;100802.66;4997266;28;1036;-54
2023/07/28 10:13:09;;;;;;;;;;;;;;;17.07;47.43;100810.88;4997599;28;1040;-50
2023/07/28 10:15:37;;;;;;;;;;;;;;;17.01;47.20;100813.91;4997802;28;2424;-51
2023/07/28 10:18:03;;;;;;;;;;;;;;;16.96;48.07;100795.50;4997688;28;1163;-52
2023/07/28 10:20:28;;;;;;;;;;;;;;;17.09;48.66;100794.13;4996269;28;1397;-52
2023/07/28 10:22:54;;;;;;;;;;;;;;;17.03;48.16;100793.28;4996795;28;1059;-53
2023/07/28 10:25:23;;;;;;;;;;;;;;;17.00;47.87;100793.00;4997439;28;1116;-52
2023/07/28 10:27:50;;;;;;;;;;;;;;;16.91;47.72;100790.84;4997502;28;1039;-52
2023/07/28 10:30:15;;;;;;;;;;;;;;;16.92;47.53;100789.72;4997609;28;1112;-49
2023/07/28 10:32:43;;;;;;;;;;;;;;;17.03;47.61;100774.06;4998232;28;1198;-52
2023/07/28 10:35:11;;;;;;;;;;;;;;;16.90;47.64;100782.84;4997428;28;1914;-46
2023/07/28 10:37:37;;;;;;;;;;;;;;;16.97;47.14;100783.44;4997218;28;1071;-45
2023/07/28 10:40:22;;;;;;;;;;;;;;;16.95;46.83;100782.84;4997168;28;1091;-48
2023/07/28 10:42:47;;;;;;;;;;;;;;;16.81;46.81;100759.78;4997160;28;1184;-47
2023/07/28 10:45:13;;;;;;;;;;;;;;;16.89;46.68;100760.06;4997031;28;2515;-48
2023/07/28 10:47:39;;;;;;;;;;;;;;;16.77;46.86;100765.81;4997142;28;1083;-51
2023/07/28 10:50:05;;;;;;;;;;;;;;;16.90;46.33;100763.63;4997099;28;1021;-50
2023/07/28 10:52:30;;;;;;;;;;;;;;;16.82;46.50;100747.69;4997181;28;1150;-49
2023/07/28 10:54:57;;;;;;;;;;;;;;;16.96;47.07;100761.69;4995185;28;1981;-46
2023/07/28 10:57:26;;;;;;;;;;;;;;;16.98;47.36;100754.03;4996735;28;1139;-48
2023/07/28 10:59:51;;;;;;;;;;;;;;;16.97;47.76;100753.22;4996804;28;1115;-47
2023/07/28 11:02:17;;;;;;;;;;;;;;;18.22;49.30;100757.16;4996653;28;1171;-45
2023/07/28 11:04:51;;;;;;;;;;;;;;;17.81;49.87;100743.59;4996624;28;1186;-50
2023/07/28 11:07:17;;;;;;;;;;;;;;;18.28;50.41;100733.97;4996689;28;1061;-50
2023/07/28 11:09:43;;;;;;;;;;;;;;;18.70;50.91;100735.31;4996955;28;1070;-45
2023/07/28 11:12:09;;;;;;;;;;;;;;;18.06;50.58;100732.50;4995783;28;1092;-46
2023/07/28 11:14:34;;;;;;;;;;;;;;;17.91;49.16;100749.09;4995127;28;2331;-48
2023/07/28 11:17:01;;;;;;;;;;;;;;;18.01;49.08;100737.19;4995248;28;1057;-47
2023/07/28 11:19:26;;;;;;;;;;;;;;;18.28;50.07;100742.25;4996359;28;1214;-45
2023/07/28 11:21:53;;;;;;;;;;;;;;;17.99;49.46;100744.91;4996610;28;1179;-51
2023/07/28 11:24:18;;;;;;;;;;;;;;;17.84;48.45;100734.75;4996585;28;1084;-49
2023/07/28 11:26:45;;;;;;;;;;;;;;;18.18;48.74;100734.06;4996069;28;1082;-46
2023/07/28 11:29:11;;;;;;;;;;;;;;;18.25;49.90;100729.06;4996780;28;1108;-48
2023/07/28 11:31:36;;;;;;;;;;;;;;;18.04;48.69;100731.94;4995964;28;1016;-45
2023/07/28 11:34:02;;;;;;;;;;;;;;;17.90;48.07;100723.47;4996139;28;1918;-47
2023/07/28 11:36:28;;;;;;;;;;;;;;;17.89;46.99;100718.25;4996714;28;1037;-48
2023/07/28 11:38:54;;;;;;;;;;;;;;;17.77;46.86;100711.16;4996288;28;870;-46
2023/07/28 11:41:20;;;;;;;;;;;;;;;17.74;46.55;100722.72;4992618;28;1159;-49
2023/07/28 11:43:48;;;;;;;;;;;;;;;18.67;48.30;100726.81;4994558;28;940;-48
2023/07/28 11:46:32;;;;;;;;;;;;;;;18.18;48.68;100720.31;4996655;28;2631;-49
2023/07/28 11:49:18;;;;;;;;;;;;;;;17.99;47.89;100718.19;4996078;28;1064;-50
2023/07/28 11:51:45;;;;;;;;;;;;;;;17.91;47.03;100707.81;4995878;28;935;-51
2023/07/28 11:54:14;;;;;;;;;;;;;;;17.82;46.78;100706.72;4996129;28;1913;-43
2023/07/28 11:56:43;;;;;;;;;;;;;;;18.63;48.53;100699.00;4996092;28;1087;-48
2023/07/28 11:59:09;;;;;;;;;;;;;;;18.10;48.50;100700.53;4996638;28;1020;-49
2023/07/28 12:01:34;;;;;;;;;;;;;;;18.00;47.61;100703.34;4996650;28;1297;-46
2023/07/28 12:04:18;;;;;;;;;;;;;;;17.89;47.35;100691.56;4998327;28;1012;-45
2023/07/28 12:07:03;;;;;;;;;;;;;;;18.68;48.26;100698.97;4999377;28;1127;-45
2023/07/28 12:09:29;;;;;;;;;;;;;;;18.15;48.32;100696.94;5006916;28;1090;-52
2023/07/28 12:11:54;;;;;;;;;;;;;;;18.09;47.67;100679.63;5016457;28;1118;-48
2023/07/28 12:14:32;;;;;;;;;;;;;;;17.94;47.17;100677.78;4997675;28;2413;-45
2023/07/28 12:16:58;;;;;;;;;;;;;;;17.93;46.50;100689.09;4996275;28;1199;-49
2023/07/28 12:19:24;;;;;;;;;;;;;;;17.89;46.07;100685.22;4998352;28;1056;-51
2023/07/28 12:21:49;;;;;;;;;;;;;;;18.23;47.11;100684.47;5000088;28;983;-46
2023/07/28 12:24:15;;;;;;;;;;;;;;;18.34;48.08;100691.56;5012449;28;1342;-50
2023/07/28 12:26:40;;;;;;;;;;;;;;;18.08;47.71;100686.25;5000000;28;1092;-50
2023/07/28 12:29:06;;;;;;;;;;;;;;;17.89;47.25;100680.56;4998954;28;1064;-47
2023/07/28 12:31:32;;;;;;;;;;;;;;;17.90;46.75;100681.38;5000273;28;1215;-48
2023/07/28 12:33:58;;;;;;;;;;;;;;;17.79;46.36;100675.97;4999740;28;1918;-46
2023/07/28 12:36:23;;;;;;;;;;;;;;;18.00;46.84;100672.28;4998530;28;1290;-47
2023/07/28 12:38:49;;;;;;;;;;;;;;;18.37;48.01;100684.63;4999625;28;1123;-49
2023/07/28 12:41:14;;;;;;;;;;;;;;;18.08;47.29;100677.97;4999886;28;1317;-45
2023/07/28 12:43:40;;;;;;;;;;;;;;;18.00;47.03;100675.84;4999714;28;1047;-50
2023/07/28 12:46:05;;;;;;;;;;;;;;;17.88;46.58;100672.56;4999184;28;2565;-41
2023/07/28 12:48:31;;;;;;;;;;;;;;;18.12;47.39;100668.03;4999740;28;1159;-49